createdAt,value
2023-05-02T00:00:43.000Z,0
2023-05-02T00:02:02.162Z,0
2023-05-02T00:03:16.000Z,0
2023-05-02T00:04:26.000Z,0
2023-05-02T00:04:32.000Z,0
2023-05-02T00:05:48.000Z,0
2023-05-02T00:07:06.699Z,0
2023-05-02T00:08:19.000Z,0
2023-05-02T00:09:35.000Z,0
2023-05-02T00:12:07.000Z,0
2023-05-02T00:13:23.000Z,0
2023-05-02T00:14:41.916Z,0
2023-05-02T00:15:56.000Z,0
2023-05-02T00:17:12.000Z,0
2023-05-02T00:18:28.000Z,0
2023-05-02T00:19:46.946Z,0
2023-05-02T00:21:00.000Z,0
2023-05-02T00:22:16.000Z,0
2023-05-02T00:23:35.285Z,0
2023-05-02T00:24:51.734Z,0
2023-05-02T00:26:04.000Z,0
2023-05-02T00:27:20.000Z,0
2023-05-02T00:28:32.000Z,0
2023-05-02T00:28:36.000Z,0
2023-05-02T00:29:53.000Z,0
2023-05-02T00:31:11.475Z,0
2023-05-02T00:32:25.000Z,0
2023-05-02T00:33:44.114Z,0
2023-05-02T00:36:12.000Z,0
2023-05-02T00:37:29.774Z,0
2023-05-02T00:38:44.982Z,0
2023-05-02T00:39:57.000Z,0
2023-05-02T00:41:15.168Z,0
2023-05-02T00:42:29.000Z,0
2023-05-02T00:43:47.809Z,0
2023-05-02T00:45:01.000Z,0
2023-05-02T00:46:17.000Z,0
2023-05-02T00:47:34.000Z,0
2023-05-02T00:48:50.000Z,0
2023-05-02T00:50:06.000Z,0
2023-05-02T00:51:22.000Z,0
2023-05-02T00:52:41.188Z,0
2023-05-02T00:53:55.000Z,0
2023-05-02T00:55:11.000Z,0
2023-05-02T00:56:29.516Z,0
2023-05-02T00:57:42.000Z,0
2023-05-02T00:58:57.000Z,0
2023-05-02T01:00:14.000Z,0
2023-05-02T01:01:30.000Z,0
2023-05-02T01:02:46.000Z,0
2023-05-02T01:04:02.000Z,0
2023-05-02T01:05:21.177Z,0
2023-05-02T01:06:34.000Z,0
2023-05-02T01:07:49.000Z,0
2023-05-02T01:09:07.796Z,0
2023-05-02T01:10:17.000Z,0
2023-05-02T01:10:24.007Z,0
2023-05-02T01:11:39.945Z,0
2023-05-02T01:12:50.000Z,0
2023-05-02T01:12:54.000Z,0
2023-05-02T01:14:10.000Z,0
2023-05-02T01:15:28.533Z,0
2023-05-02T01:17:58.000Z,0
2023-05-02T01:20:31.000Z,0
2023-05-02T01:21:49.759Z,0
2023-05-02T01:23:05.957Z,0
2023-05-02T01:24:18.000Z,0
2023-05-02T01:25:34.000Z,0
2023-05-02T01:26:51.000Z,0
2023-05-02T01:28:09.767Z,0
2023-05-02T01:29:25.703Z,0
2023-05-02T01:30:42.146Z,0
2023-05-02T01:31:55.000Z,0
2023-05-02T01:33:11.000Z,0
2023-05-02T01:34:28.780Z,0
2023-05-02T01:35:41.000Z,0
2023-05-02T01:36:56.000Z,0
2023-05-02T01:38:14.187Z,0
2023-05-02T01:39:27.000Z,0
2023-05-02T01:40:43.000Z,0
2023-05-02T01:42:02.039Z,0
2023-05-02T01:43:15.000Z,0
2023-05-02T01:44:32.000Z,0
2023-05-02T01:45:50.626Z,0
2023-05-02T01:47:04.000Z,0
2023-05-02T01:48:20.000Z,0
2023-05-02T01:49:36.000Z,0
2023-05-02T01:50:53.000Z,0
2023-05-02T01:52:09.000Z,0
2023-05-02T01:53:27.803Z,0
2023-05-02T01:54:41.000Z,0
2023-05-02T01:55:56.000Z,0
2023-05-02T01:57:15.406Z,0
2023-05-02T01:58:31.596Z,0
2023-05-02T01:59:47.799Z,0
2023-05-02T02:01:04.001Z,0
2023-05-02T02:02:17.000Z,0
2023-05-02T02:03:34.000Z,0
2023-05-02T02:04:44.000Z,0
2023-05-02T02:04:49.000Z,0
2023-05-02T02:06:04.000Z,0
2023-05-02T02:07:20.000Z,0
2023-05-02T02:08:39.221Z,0
2023-05-02T02:09:53.000Z,0
2023-05-02T02:12:27.802Z,0
2023-05-02T02:13:43.748Z,0
2023-05-02T02:14:57.000Z,0
2023-05-02T02:16:16.141Z,0
2023-05-02T02:17:30.000Z,0
2023-05-02T02:18:46.000Z,0
2023-05-02T02:20:04.974Z,0
2023-05-02T02:21:18.000Z,0
2023-05-02T02:22:36.137Z,0
2023-05-02T02:23:52.578Z,0
2023-05-02T02:25:08.529Z,0
2023-05-02T02:26:16.000Z,0
2023-05-02T02:26:22.000Z,0
2023-05-02T02:27:41.166Z,0
2023-05-02T02:28:57.364Z,0
2023-05-02T02:30:11.000Z,0
2023-05-02T02:31:28.536Z,0
2023-05-02T02:33:59.221Z,0
2023-05-02T02:35:12.000Z,0
2023-05-02T02:36:28.000Z,0
2023-05-02T02:37:44.000Z,0
2023-05-02T02:38:59.000Z,0
2023-05-02T02:40:14.000Z,0
2023-05-02T02:41:31.000Z,0
2023-05-02T02:42:49.400Z,0
2023-05-02T02:44:05.855Z,0
2023-05-02T02:45:19.000Z,0
2023-05-02T02:46:35.000Z,0
2023-05-02T02:47:54.426Z,0
2023-05-02T02:49:10.623Z,0
2023-05-02T02:50:24.000Z,0
2023-05-02T02:51:43.017Z,0
2023-05-02T02:52:59.214Z,0
2023-05-02T02:54:13.000Z,0
2023-05-02T02:55:29.000Z,0
2023-05-02T02:56:44.000Z,0
2023-05-02T02:58:00.000Z,0
2023-05-02T02:59:18.962Z,0
2023-05-02T03:00:33.000Z,0
2023-05-02T03:01:49.000Z,0
2023-05-02T03:03:05.000Z,0
2023-05-02T03:04:21.000Z,0
2023-05-02T03:05:36.000Z,0
2023-05-02T03:06:54.423Z,0
2023-05-02T03:08:07.000Z,0
2023-05-02T03:09:24.613Z,0
2023-05-02T03:10:38.000Z,0
2023-05-02T03:11:54.000Z,0
2023-05-02T03:13:13.200Z,0
2023-05-02T03:14:29.396Z,0
2023-05-02T03:15:43.000Z,0
2023-05-02T03:17:01.787Z,0
2023-05-02T03:18:18.252Z,0
2023-05-02T03:19:32.000Z,0
2023-05-02T03:20:48.000Z,0
2023-05-02T03:22:04.000Z,0
2023-05-02T03:23:20.000Z,0
2023-05-02T03:24:36.000Z,0
2023-05-02T03:25:52.000Z,0
2023-05-02T03:27:10.617Z,0
2023-05-02T03:28:24.000Z,0
2023-05-02T03:29:40.000Z,0
2023-05-02T03:30:56.000Z,0
2023-05-02T03:32:15.154Z,0
2023-05-02T03:33:29.000Z,0
2023-05-02T03:34:44.000Z,0
2023-05-02T03:35:59.000Z,0
2023-05-02T03:37:14.000Z,0
2023-05-02T03:38:32.483Z,0
2023-05-02T03:39:48.665Z,0
2023-05-02T03:41:02.000Z,0
2023-05-02T03:42:21.057Z,0
2023-05-02T03:43:34.000Z,0
2023-05-02T03:44:53.453Z,0
2023-05-02T03:46:07.000Z,0
2023-05-02T03:47:25.855Z,0
2023-05-02T03:48:39.000Z,0
2023-05-02T03:49:55.000Z,0
2023-05-02T03:51:12.000Z,0
2023-05-02T03:52:30.367Z,0
2023-05-02T03:53:44.000Z,0
2023-05-02T03:55:01.772Z,0
2023-05-02T03:56:15.000Z,0
2023-05-02T03:57:34.159Z,0
2023-05-02T03:58:48.000Z,0
2023-05-02T04:00:06.788Z,0
2023-05-02T04:01:20.000Z,0
2023-05-02T04:02:38.933Z,0
2023-05-02T04:03:52.000Z,0
2023-05-02T04:05:09.607Z,0
2023-05-02T04:06:23.000Z,0
2023-05-02T04:07:38.000Z,0
2023-05-02T04:08:53.000Z,0
2023-05-02T04:10:12.426Z,0
2023-05-02T04:11:26.000Z,0
2023-05-02T04:12:42.000Z,0
2023-05-02T04:13:58.000Z,0
2023-05-02T04:15:17.210Z,0
2023-05-02T04:16:31.000Z,0
2023-05-02T04:17:47.000Z,0
2023-05-02T04:19:03.000Z,0
2023-05-02T04:20:19.000Z,0
2023-05-02T04:21:35.000Z,0
2023-05-02T04:22:51.000Z,0
2023-05-02T04:24:08.000Z,0
2023-05-02T04:25:25.777Z,0
2023-05-02T04:26:41.717Z,0
2023-05-02T04:27:55.000Z,0
2023-05-02T04:29:11.000Z,0
2023-05-02T04:30:28.000Z,0
2023-05-02T04:31:44.000Z,5
2023-05-02T04:33:00.000Z,5
2023-05-02T04:34:15.000Z,5
2023-05-02T04:35:33.118Z,5
2023-05-02T04:36:46.000Z,5
2023-05-02T04:38:01.000Z,5
2023-05-02T04:39:17.000Z,5
2023-05-02T04:40:33.000Z,5
2023-05-02T04:41:49.000Z,5
2023-05-02T04:43:06.000Z,5
2023-05-02T04:44:24.518Z,5
2023-05-02T04:45:40.970Z,5
2023-05-02T04:46:56.905Z,5
2023-05-02T04:48:13.099Z,5
2023-05-02T04:49:27.000Z,5
2023-05-02T04:50:43.000Z,5
2023-05-02T04:51:59.000Z,5
2023-05-02T04:53:18.124Z,5
2023-05-02T04:54:30.000Z,5
2023-05-02T04:55:49.279Z,5
2023-05-02T04:57:03.000Z,5
2023-05-02T04:58:19.000Z,5
2023-05-02T04:59:38.109Z,11
2023-05-02T05:00:54.054Z,11
2023-05-02T05:02:08.000Z,11
2023-05-02T05:03:25.469Z,11
2023-05-02T05:04:38.000Z,11
2023-05-02T05:05:53.000Z,11
2023-05-02T05:07:08.000Z,11
2023-05-02T05:08:27.303Z,16
2023-05-02T05:09:43.750Z,22
2023-05-02T05:10:57.000Z,22
2023-05-02T05:12:13.000Z,22
2023-05-02T05:13:28.000Z,16
2023-05-02T05:14:45.000Z,16
2023-05-02T05:16:03.487Z,16
2023-05-02T05:17:17.000Z,28
2023-05-02T05:18:36.128Z,33
2023-05-02T05:19:49.000Z,28
2023-05-02T05:21:08.514Z,28
2023-05-02T05:22:22.000Z,28
2023-05-02T05:23:40.650Z,22
2023-05-02T05:24:54.000Z,22
2023-05-02T05:26:10.000Z,22
2023-05-02T05:27:29.231Z,22
2023-05-02T05:28:45.425Z,28
2023-05-02T05:29:58.000Z,28
2023-05-02T05:31:14.000Z,28
2023-05-02T05:32:32.048Z,28
2023-05-02T05:33:45.000Z,28
2023-05-02T05:35:01.000Z,33
2023-05-02T05:36:19.646Z,33
2023-05-02T05:37:33.000Z,50
2023-05-02T05:38:49.000Z,61
2023-05-02T05:40:08.227Z,56
2023-05-02T05:41:24.670Z,61
2023-05-02T05:42:38.000Z,67
2023-05-02T05:43:54.000Z,78
2023-05-02T05:45:10.000Z,78
2023-05-02T05:46:27.000Z,73
2023-05-02T05:47:43.000Z,78
2023-05-02T05:49:01.583Z,78
2023-05-02T05:50:14.000Z,78
2023-05-02T05:51:33.233Z,61
2023-05-02T05:52:47.000Z,61
2023-05-02T05:54:03.000Z,67
2023-05-02T05:55:19.000Z,84
2023-05-02T05:56:37.762Z,95
2023-05-02T05:57:53.956Z,95
2023-05-02T05:59:07.000Z,90
2023-05-02T06:00:22.000Z,95
2023-05-02T06:01:37.000Z,106
2023-05-02T06:02:52.000Z,106
2023-05-02T06:04:07.000Z,78
2023-05-02T06:05:23.000Z,61
2023-05-02T06:06:39.000Z,56
2023-05-02T06:07:55.461Z,61
2023-05-02T06:09:11.000Z,61
2023-05-02T06:10:27.000Z,67
2023-05-02T06:11:46.476Z,56
2023-05-02T06:13:00.000Z,56
2023-05-02T06:14:16.000Z,50
2023-05-02T06:15:32.000Z,50
2023-05-02T06:16:50.991Z,56
2023-05-02T06:18:05.000Z,73
2023-05-02T06:19:23.378Z,84
2023-05-02T06:20:37.000Z,78
2023-05-02T06:21:54.782Z,73
2023-05-02T06:23:08.000Z,73
2023-05-02T06:24:24.000Z,61
2023-05-02T06:25:41.000Z,61
2023-05-02T06:26:59.806Z,61
2023-05-02T06:28:13.000Z,61
2023-05-02T06:29:32.183Z,56
2023-05-02T06:30:47.163Z,50
2023-05-02T06:31:56.000Z,61
2023-05-02T06:32:02.373Z,61
2023-05-02T06:33:16.000Z,73
2023-05-02T06:34:34.760Z,67
2023-05-02T06:35:48.000Z,67
2023-05-02T06:37:04.000Z,56
2023-05-02T06:39:39.534Z,56
2023-05-02T06:40:55.982Z,56
2023-05-02T06:42:11.922Z,61
2023-05-02T06:43:28.115Z,61
2023-05-02T06:44:44.309Z,56
2023-05-02T06:45:58.000Z,61
2023-05-02T06:47:14.000Z,61
2023-05-02T06:48:29.000Z,67
2023-05-02T06:49:48.100Z,112
2023-05-02T06:51:02.000Z,135
2023-05-02T06:52:18.000Z,123
2023-05-02T06:53:36.932Z,112
2023-05-02T06:54:50.000Z,123
2023-05-02T06:56:06.000Z,106
2023-05-02T06:57:22.000Z,118
2023-05-02T06:58:37.000Z,135
2023-05-02T06:59:53.000Z,101
2023-05-02T07:01:09.000Z,73
2023-05-02T07:02:25.000Z,84
2023-05-02T07:03:42.000Z,106
2023-05-02T07:05:00.468Z,106
2023-05-02T07:06:14.000Z,101
2023-05-02T07:07:30.000Z,90
2023-05-02T07:08:46.000Z,101
2023-05-02T07:10:05.242Z,95
2023-05-02T07:11:19.000Z,112
2023-05-02T07:12:37.630Z,140
2023-05-02T07:13:51.000Z,140
2023-05-02T07:15:06.000Z,101
2023-05-02T07:16:23.000Z,73
2023-05-02T07:17:41.421Z,78
2023-05-02T07:18:55.000Z,106
2023-05-02T07:20:14.054Z,112
2023-05-02T07:21:30.002Z,90
2023-05-02T07:22:46.451Z,67
2023-05-02T07:23:59.000Z,90
2023-05-02T07:25:16.625Z,84
2023-05-02T07:26:29.000Z,129
2023-05-02T07:27:47.310Z,129
2023-05-02T07:29:00.000Z,118
2023-05-02T07:30:15.000Z,95
2023-05-02T07:31:31.000Z,90
2023-05-02T07:32:46.000Z,123
2023-05-02T07:34:01.000Z,157
2023-05-02T07:35:20.560Z,140
2023-05-02T07:36:34.000Z,135
2023-05-02T07:37:52.692Z,157
2023-05-02T07:39:06.000Z,123
2023-05-02T07:40:22.000Z,135
2023-05-02T07:41:41.519Z,163
2023-05-02T07:42:57.713Z,118
2023-05-02T07:44:13.904Z,95
2023-05-02T07:45:29.854Z,129
2023-05-02T07:46:43.000Z,146
2023-05-02T07:48:00.000Z,157
2023-05-02T07:49:16.000Z,219
2023-05-02T07:50:33.645Z,174
2023-05-02T07:51:49.838Z,168
2023-05-02T07:53:03.000Z,191
2023-05-02T07:54:22.225Z,118
2023-05-02T07:55:36.000Z,163
2023-05-02T07:56:52.000Z,146
2023-05-02T07:58:11.062Z,123
2023-05-02T07:59:23.000Z,135
2023-05-02T08:00:39.000Z,129
2023-05-02T08:01:54.000Z,157
2023-05-02T08:03:11.926Z,208
2023-05-02T08:04:28.130Z,213
2023-05-02T08:05:41.000Z,151
2023-05-02T08:07:00.495Z,157
2023-05-02T08:08:14.000Z,225
2023-05-02T08:09:30.000Z,236
2023-05-02T08:10:48.830Z,230
2023-05-02T08:12:02.000Z,191
2023-05-02T08:13:19.000Z,163
2023-05-02T08:14:35.000Z,168
2023-05-02T08:15:51.000Z,191
2023-05-02T08:17:07.000Z,151
2023-05-02T08:18:23.000Z,101
2023-05-02T08:19:41.458Z,118
2023-05-02T08:20:57.395Z,101
2023-05-02T08:22:11.000Z,90
2023-05-02T08:23:27.000Z,101
2023-05-02T08:24:43.000Z,146
2023-05-02T08:26:02.420Z,146
2023-05-02T08:27:18.612Z,106
2023-05-02T08:28:33.850Z,123
2023-05-02T08:29:48.793Z,191
2023-05-02T08:31:04.260Z,264
2023-05-02T08:32:19.472Z,320
2023-05-02T08:33:33.000Z,281
2023-05-02T08:34:51.861Z,275
2023-05-02T08:36:07.805Z,337
2023-05-02T08:37:21.000Z,393
2023-05-02T08:38:37.000Z,433
2023-05-02T08:39:54.000Z,410
2023-05-02T08:41:10.000Z,405
2023-05-02T08:42:26.000Z,320
2023-05-02T08:43:44.967Z,326
2023-05-02T08:44:58.000Z,309
2023-05-02T08:46:10.000Z,275
2023-05-02T08:46:17.608Z,270
2023-05-02T08:47:33.789Z,202
2023-05-02T08:48:46.000Z,230
2023-05-02T08:50:04.952Z,292
2023-05-02T08:51:18.000Z,315
2023-05-02T08:53:51.000Z,253
2023-05-02T08:55:07.000Z,270
2023-05-02T08:56:23.000Z,281
2023-05-02T08:57:41.388Z,236
2023-05-02T08:58:54.000Z,219
2023-05-02T09:00:09.000Z,202
2023-05-02T09:01:27.024Z,191
2023-05-02T09:02:40.000Z,163
2023-05-02T09:03:56.000Z,157
2023-05-02T09:05:13.000Z,168
2023-05-02T09:06:31.555Z,213
2023-05-02T09:07:47.749Z,225
2023-05-02T09:09:04.187Z,236
2023-05-02T09:10:17.000Z,236
2023-05-02T09:11:36.582Z,286
2023-05-02T09:12:50.000Z,281
2023-05-02T09:14:08.718Z,320
2023-05-02T09:15:22.000Z,230
2023-05-02T09:16:38.000Z,241
2023-05-02T09:17:54.000Z,225
2023-05-02T09:19:12.759Z,225
2023-05-02T09:20:26.000Z,241
2023-05-02T09:21:45.145Z,258
2023-05-02T09:23:01.328Z,219
2023-05-02T09:24:17.534Z,230
2023-05-02T09:25:33.724Z,219
2023-05-02T09:26:48.942Z,281
2023-05-02T09:28:01.000Z,348
2023-05-02T09:29:19.133Z,382
2023-05-02T09:30:32.000Z,382
2023-05-02T09:31:48.000Z,315
2023-05-02T09:33:04.000Z,292
2023-05-02T09:34:22.924Z,309
2023-05-02T09:35:39.369Z,331
2023-05-02T09:36:55.311Z,326
2023-05-02T09:38:11.505Z,382
2023-05-02T09:39:27.955Z,343
2023-05-02T09:40:41.000Z,258
2023-05-02T09:41:57.000Z,174
2023-05-02T09:43:16.280Z,168
2023-05-02T09:44:32.723Z,180
2023-05-02T09:45:48.912Z,326
2023-05-02T09:47:04.121Z,427
2023-05-02T09:48:17.000Z,405
2023-05-02T09:49:33.000Z,399
2023-05-02T09:50:48.000Z,343
2023-05-02T09:52:06.939Z,309
2023-05-02T09:53:23.131Z,258
2023-05-02T09:54:36.000Z,196
2023-05-02T09:55:53.000Z,118
2023-05-02T09:57:09.000Z,73
2023-05-02T09:58:27.914Z,67
2023-05-02T09:59:43.857Z,78
2023-05-02T10:00:57.000Z,129
2023-05-02T10:02:14.000Z,129
2023-05-02T10:03:32.690Z,140
2023-05-02T10:04:48.632Z,202
2023-05-02T10:06:05.074Z,236
2023-05-02T10:07:20.289Z,225
2023-05-02T10:08:36.479Z,208
2023-05-02T10:09:52.669Z,180
2023-05-02T10:11:08.617Z,174
2023-05-02T10:12:22.000Z,196
2023-05-02T10:13:38.000Z,230
2023-05-02T10:14:57.197Z,253
2023-05-02T10:16:10.000Z,236
2023-05-02T10:17:27.873Z,230
2023-05-02T10:18:40.000Z,236
2023-05-02T10:19:55.000Z,219
2023-05-02T10:21:11.000Z,213
2023-05-02T10:22:26.000Z,258
2023-05-02T10:23:42.000Z,275
2023-05-02T10:24:58.000Z,298
2023-05-02T10:26:17.321Z,309
2023-05-02T10:27:31.000Z,303
2023-05-02T10:28:49.709Z,258
2023-05-02T10:30:05.890Z,270
2023-05-02T10:31:19.000Z,275
2023-05-02T10:32:35.000Z,253
2023-05-02T10:33:54.488Z,219
2023-05-02T10:35:10.662Z,202
2023-05-02T10:36:26.619Z,213
2023-05-02T10:37:43.074Z,241
2023-05-02T10:38:58.263Z,236
2023-05-02T10:40:11.000Z,225
2023-05-02T10:41:30.654Z,225
2023-05-02T10:42:44.000Z,236
2023-05-02T10:44:02.797Z,253
2023-05-02T10:45:16.000Z,275
2023-05-02T10:46:32.000Z,315
2023-05-02T10:47:48.000Z,371
2023-05-02T10:49:03.000Z,427
2023-05-02T10:50:18.000Z,450
2023-05-02T10:51:33.000Z,466
2023-05-02T10:52:52.240Z,495
2023-05-02T10:54:08.683Z,511
2023-05-02T10:55:22.000Z,540
2023-05-02T10:56:41.066Z,528
2023-05-02T10:57:54.000Z,534
2023-05-02T10:59:13.453Z,478
2023-05-02T11:00:29.650Z,444
2023-05-02T11:01:45.596Z,489
2023-05-02T11:03:02.039Z,455
2023-05-02T11:04:15.000Z,416
2023-05-02T11:05:34.428Z,427
2023-05-02T11:06:50.371Z,416
2023-05-02T11:08:05.581Z,410
2023-05-02T11:09:19.000Z,416
2023-05-02T11:10:38.213Z,360
2023-05-02T11:11:51.000Z,326
2023-05-02T11:13:08.000Z,354
2023-05-02T11:14:24.000Z,354
2023-05-02T11:15:42.742Z,371
2023-05-02T11:16:55.000Z,388
2023-05-02T11:18:10.000Z,382
2023-05-02T11:19:27.000Z,343
2023-05-02T11:20:42.000Z,320
2023-05-02T11:21:59.796Z,320
2023-05-02T11:23:15.989Z,292
2023-05-02T11:24:29.000Z,303
2023-05-02T11:25:48.623Z,320
2023-05-02T11:27:02.000Z,354
2023-05-02T11:28:18.000Z,427
2023-05-02T11:29:34.000Z,416
2023-05-02T11:30:53.151Z,309
2023-05-02T11:32:07.000Z,270
2023-05-02T11:33:23.000Z,286
2023-05-02T11:34:41.984Z,331
2023-05-02T11:35:55.000Z,405
2023-05-02T11:37:11.000Z,500
2023-05-02T11:38:27.000Z,528
2023-05-02T11:39:43.000Z,523
2023-05-02T11:41:01.966Z,534
2023-05-02T11:42:18.153Z,551
2023-05-02T11:43:31.000Z,551
2023-05-02T11:44:48.000Z,534
2023-05-02T11:46:06.734Z,528
2023-05-02T11:47:21.956Z,466
2023-05-02T11:48:34.000Z,416
2023-05-02T11:49:53.114Z,461
2023-05-02T11:51:09.546Z,523
2023-05-02T11:52:23.000Z,489
2023-05-02T11:53:39.000Z,421
2023-05-02T11:54:55.000Z,393
2023-05-02T11:56:14.331Z,405
2023-05-02T11:57:28.000Z,427
2023-05-02T11:58:46.722Z,421
2023-05-02T12:00:02.916Z,388
2023-05-02T12:01:19.107Z,348
2023-05-02T12:02:32.000Z,320
2023-05-02T12:03:51.497Z,388
2023-05-02T12:05:04.000Z,489
2023-05-02T12:06:22.650Z,528
2023-05-02T12:07:36.000Z,534
2023-05-02T12:08:55.292Z,517
2023-05-02T12:10:11.475Z,506
2023-05-02T12:11:25.000Z,500
2023-05-02T12:12:41.000Z,500
2023-05-02T12:13:57.000Z,528
2023-05-02T12:15:15.271Z,545
2023-05-02T12:16:30.242Z,551
2023-05-02T12:17:45.462Z,568
2023-05-02T12:18:58.000Z,579
2023-05-02T12:20:14.000Z,579
2023-05-02T12:21:30.000Z,590
2023-05-02T12:22:46.000Z,585
2023-05-02T12:24:05.446Z,573
2023-05-02T12:25:21.888Z,545
2023-05-02T12:26:35.000Z,511
2023-05-02T12:27:51.000Z,433
2023-05-02T12:29:07.000Z,376
2023-05-02T12:30:26.659Z,371
2023-05-02T12:31:42.608Z,444
2023-05-02T12:32:56.000Z,500
2023-05-02T12:34:15.246Z,495
2023-05-02T12:35:23.000Z,500
2023-05-02T12:35:30.205Z,500
2023-05-02T12:36:44.000Z,461
2023-05-02T12:38:00.000Z,461
2023-05-02T12:39:18.787Z,489
2023-05-02T12:40:32.000Z,495
2023-05-02T12:43:05.000Z,495
2023-05-02T12:44:22.835Z,495
2023-05-02T12:45:37.798Z,495
2023-05-02T12:46:50.000Z,489
2023-05-02T12:48:08.229Z,483
2023-05-02T12:49:22.000Z,478
2023-05-02T12:50:38.000Z,472
2023-05-02T12:51:54.000Z,461
2023-05-02T12:53:10.000Z,461
2023-05-02T12:54:29.448Z,472
2023-05-02T12:55:43.000Z,478
2023-05-02T12:56:59.000Z,472
2023-05-02T12:58:18.028Z,438
2023-05-02T12:59:31.000Z,416
2023-05-02T13:00:47.000Z,416
2023-05-02T13:02:06.616Z,399
2023-05-02T13:03:22.800Z,399
2023-05-02T13:04:37.765Z,393
2023-05-02T13:05:53.959Z,365
2023-05-02T13:07:07.000Z,343
2023-05-02T13:08:24.000Z,320
2023-05-02T13:09:40.000Z,331
2023-05-02T13:10:58.979Z,337
2023-05-02T13:12:12.000Z,376
2023-05-02T13:13:27.000Z,410
2023-05-02T13:14:43.000Z,421
2023-05-02T13:15:59.000Z,427
2023-05-02T13:17:15.000Z,433
2023-05-02T13:18:34.181Z,450
2023-05-02T13:19:47.000Z,466
2023-05-02T13:21:06.325Z,466
2023-05-02T13:22:20.000Z,455
2023-05-02T13:23:36.000Z,455
2023-05-02T13:24:55.169Z,450
2023-05-02T13:26:08.000Z,433
2023-05-02T13:27:25.000Z,427
2023-05-02T13:28:41.000Z,388
2023-05-02T13:29:59.689Z,343
2023-05-02T13:31:12.000Z,365
2023-05-02T13:32:31.351Z,399
2023-05-02T13:33:47.290Z,382
2023-05-02T13:35:03.486Z,343
2023-05-02T13:36:19.924Z,337
2023-05-02T13:37:33.000Z,371
2023-05-02T13:38:49.000Z,365
2023-05-02T13:40:07.539Z,371
2023-05-02T13:41:20.000Z,371
2023-05-02T13:42:35.000Z,388
2023-05-02T13:43:50.000Z,416
2023-05-02T13:45:05.000Z,421
2023-05-02T13:46:23.381Z,427
2023-05-02T13:47:39.826Z,376
2023-05-02T13:48:53.000Z,348
2023-05-02T13:50:09.000Z,343
2023-05-02T13:51:28.164Z,360
2023-05-02T13:52:42.000Z,354
2023-05-02T13:53:58.000Z,331
2023-05-02T13:55:16.751Z,315
2023-05-02T13:56:30.000Z,315
2023-05-02T13:57:49.397Z,315
2023-05-02T13:59:03.000Z,320
2023-05-02T14:00:21.790Z,326
2023-05-02T14:01:37.729Z,354
2023-05-02T14:02:53.191Z,405
2023-05-02T14:04:06.000Z,393
2023-05-02T14:05:25.576Z,433
2023-05-02T14:06:39.000Z,427
2023-05-02T14:07:57.722Z,388
2023-05-02T14:09:11.000Z,365
2023-05-02T14:10:27.000Z,365
2023-05-02T14:11:43.000Z,371
2023-05-02T14:12:58.000Z,337
2023-05-02T14:14:16.999Z,326
2023-05-02T14:15:29.000Z,331
2023-05-02T14:16:44.000Z,326
2023-05-02T14:18:03.376Z,320
2023-05-02T14:19:19.810Z,326
2023-05-02T14:20:35.767Z,354
2023-05-02T14:21:49.000Z,376
2023-05-02T14:23:05.000Z,382
2023-05-02T14:24:24.354Z,354
2023-05-02T14:25:40.805Z,320
2023-05-02T14:26:56.989Z,298
2023-05-02T14:28:13.196Z,275
2023-05-02T14:29:26.000Z,258
2023-05-02T14:30:43.000Z,247
2023-05-02T14:31:59.000Z,236
2023-05-02T14:33:15.000Z,236
2023-05-02T14:34:30.000Z,270
2023-05-02T14:35:49.131Z,230
2023-05-02T14:37:05.570Z,247
2023-05-02T14:38:19.230Z,270
2023-05-02T14:39:37.963Z,320
2023-05-02T14:40:53.913Z,348
2023-05-02T14:42:07.000Z,354
2023-05-02T14:43:25.569Z,348
2023-05-02T14:44:40.542Z,360
2023-05-02T14:45:53.000Z,360
2023-05-02T14:47:10.976Z,343
2023-05-02T14:48:27.421Z,326
2023-05-02T14:49:43.367Z,337
2023-05-02T14:50:57.000Z,331
2023-05-02T14:52:16.001Z,258
2023-05-02T14:53:29.000Z,202
2023-05-02T14:54:45.000Z,180
2023-05-02T14:56:02.000Z,180
2023-05-02T14:57:13.000Z,180
2023-05-02T14:57:20.783Z,180
2023-05-02T14:58:36.737Z,180
2023-05-02T14:59:52.932Z,180
2023-05-02T15:01:09.370Z,180
2023-05-02T15:02:17.000Z,146
2023-05-02T15:02:23.000Z,180
2023-05-02T15:04:56.979Z,174
2023-05-02T15:06:12.926Z,163
2023-05-02T15:07:26.000Z,140
2023-05-02T15:09:59.000Z,180
2023-05-02T15:11:17.953Z,163
2023-05-02T15:12:30.000Z,174
2023-05-02T15:13:48.142Z,174
2023-05-02T15:15:04.337Z,174
2023-05-02T15:16:18.000Z,180
2023-05-02T15:17:33.000Z,185
2023-05-02T15:18:48.000Z,191
2023-05-02T15:20:04.000Z,196
2023-05-02T15:21:23.598Z,213
2023-05-02T15:22:37.000Z,241
2023-05-02T15:23:55.991Z,247
2023-05-02T15:25:09.000Z,241
2023-05-02T15:26:25.000Z,241
2023-05-02T15:27:44.577Z,247
2023-05-02T15:28:58.000Z,253
2023-05-02T15:30:16.971Z,247
2023-05-02T15:31:30.000Z,236
2023-05-02T15:32:49.369Z,219
2023-05-02T15:34:03.000Z,196
2023-05-02T15:35:20.766Z,196
2023-05-02T15:36:36.971Z,208
2023-05-02T15:37:50.000Z,219
2023-05-02T15:39:06.000Z,230
2023-05-02T15:40:22.000Z,236
2023-05-02T15:41:31.000Z,185
2023-05-02T15:41:41.503Z,208
2023-05-02T15:42:57.947Z,185
2023-05-02T15:44:03.000Z,163
2023-05-02T15:44:10.000Z,180
2023-05-02T15:45:25.000Z,180
2023-05-02T15:46:41.000Z,180
2023-05-02T15:49:12.000Z,180
2023-05-02T15:50:24.000Z,157
2023-05-02T15:51:44.000Z,151
2023-05-02T15:53:01.000Z,151
2023-05-02T15:54:19.544Z,151
2023-05-02T15:55:29.000Z,157
2023-05-02T15:55:33.000Z,168
2023-05-02T15:58:05.000Z,163
2023-05-02T15:59:24.326Z,163
2023-05-02T16:00:38.000Z,157
2023-05-02T16:03:13.159Z,157
2023-05-02T16:04:25.000Z,157
2023-05-02T16:05:44.320Z,163
2023-05-02T16:06:58.000Z,163
2023-05-02T16:08:16.711Z,157
2023-05-02T16:09:30.000Z,157
2023-05-02T16:10:46.000Z,151
2023-05-02T16:12:05.299Z,151
2023-05-02T16:13:20.770Z,151
2023-05-02T16:14:33.000Z,151
2023-05-02T16:15:50.953Z,151
2023-05-02T16:17:03.000Z,146
2023-05-02T16:18:15.000Z,140
2023-05-02T16:18:20.000Z,146
2023-05-02T16:19:38.556Z,146
2023-05-02T16:20:52.000Z,146
2023-05-02T16:22:04.000Z,140
2023-05-02T16:22:08.000Z,146
2023-05-02T16:23:27.390Z,146
2023-05-02T16:25:59.777Z,146
2023-05-02T16:27:15.730Z,146
2023-05-02T16:29:48.371Z,140
2023-05-02T16:31:04.316Z,140
2023-05-02T16:32:18.000Z,140
2023-05-02T16:33:33.000Z,146
2023-05-02T16:34:49.000Z,151
2023-05-02T16:36:05.000Z,151
2023-05-02T16:37:21.000Z,146
2023-05-02T16:38:38.000Z,146
2023-05-02T16:39:54.000Z,140
2023-05-02T16:41:10.000Z,135
2023-05-02T16:42:25.000Z,135
2023-05-02T16:43:43.330Z,135
2023-05-02T16:44:57.000Z,135
2023-05-02T16:46:15.967Z,135
2023-05-02T16:47:31.193Z,140
2023-05-02T16:48:43.000Z,140
2023-05-02T16:50:02.352Z,140
2023-05-02T16:51:16.000Z,135
2023-05-02T16:52:32.000Z,135
2023-05-02T16:53:44.000Z,123
2023-05-02T16:53:48.000Z,129
2023-05-02T16:55:04.000Z,129
2023-05-02T16:56:23.330Z,129
2023-05-02T16:57:39.526Z,123
2023-05-02T16:58:53.000Z,123
2023-05-02T17:01:25.000Z,123
2023-05-02T17:02:41.000Z,118
2023-05-02T17:03:58.000Z,118
2023-05-02T17:05:15.716Z,112
2023-05-02T17:06:32.150Z,112
2023-05-02T17:07:45.000Z,112
2023-05-02T17:09:01.000Z,106
2023-05-02T17:10:18.000Z,106
2023-05-02T17:11:36.940Z,106
2023-05-02T17:12:52.889Z,106
2023-05-02T17:14:08.355Z,106
2023-05-02T17:15:23.322Z,106
2023-05-02T17:16:37.000Z,106
2023-05-02T17:17:52.000Z,101
2023-05-02T17:19:08.000Z,101
2023-05-02T17:20:23.000Z,101
2023-05-02T17:21:40.000Z,95
2023-05-02T17:22:58.792Z,95
2023-05-02T17:24:12.000Z,95
2023-05-02T17:25:28.000Z,95
2023-05-02T17:26:47.363Z,95
2023-05-02T17:28:03.563Z,101
2023-05-02T17:29:17.000Z,140
2023-05-02T17:30:35.711Z,168
2023-05-02T17:31:52.151Z,157
2023-05-02T17:33:05.000Z,129
2023-05-02T17:34:21.000Z,95
2023-05-02T17:35:40.493Z,84
2023-05-02T17:36:55.950Z,84
2023-05-02T17:38:09.000Z,84
2023-05-02T17:39:28.344Z,84
2023-05-02T17:40:44.535Z,78
2023-05-02T17:41:58.000Z,78
2023-05-02T17:43:08.000Z,67
2023-05-02T17:43:16.926Z,78
2023-05-02T17:44:29.000Z,73
2023-05-02T17:45:47.117Z,73
2023-05-02T17:47:00.000Z,73
2023-05-02T17:48:17.000Z,73
2023-05-02T17:50:52.148Z,67
2023-05-02T17:52:05.000Z,67